Time;durP1;ratioP1;P1;durP2;ratioP2;P2;SDS_P1;SDS_P2;PMS_P1;PMS_P2;Temp;Humidity;BMP_temperature;BMP_pressure;BME280_temperature;BME280_humidity;BME280_pressure;Samples;Min_cycle;Max_cycle;Signal;HPM_P1;HPM_P2
2023/05/31 00:00:53;;;;;;;1.95;1.65;;;;;;;13.65;99.67;97996.59;1701160;75;759764;-69
2023/05/31 00:03:23;;;;;;;2.45;1.40;;;;;;;13.57;100.00;97992.78;1710691;75;678537;-68
2023/05/31 00:05:54;;;;;;;1.90;1.50;;;;;;;13.54;100.00;97985.50;1701369;75;745376;-73
2023/05/31 00:08:25;;;;;;;1.45;1.35;;;;;;;13.43;100.00;97989.66;1710464;75;670911;-70
2023/05/31 00:10:55;;;;;;;2.00;1.80;;;;;;;13.48;100.00;97988.22;1702063;75;738956;-70
2023/05/31 00:13:28;;;;;;;2.85;2.00;;;;;;;13.37;100.00;97991.63;1709029;75;794405;-69
2023/05/31 00:15:58;;;;;;;2.25;1.55;;;;;;;13.38;100.00;97992.38;1675815;75;2807996;-68
2023/05/31 00:18:29;;;;;;;2.45;2.20;;;;;;;13.22;100.00;97990.94;1710223;75;673364;-72
2023/05/31 00:20:59;;;;;;;2.40;1.80;;;;;;;13.23;100.00;97989.72;1699896;75;885116;-68
2023/05/31 00:23:30;;;;;;;2.45;2.05;;;;;;;13.17;100.00;97988.91;1711118;75;671350;-71
2023/05/31 00:26:00;;;;;;;2.10;1.70;;;;;;;13.14;100.00;97990.63;1701232;75;746212;-74
2023/05/31 00:28:33;;;;;;;1.70;1.40;;;;;;;13.16;100.00;97992.91;1709815;75;674042;-70
2023/05/31 00:31:03;;;;;;;1.50;1.40;;;;;;;13.09;100.00;97987.81;1699162;75;876291;-69
2023/05/31 00:33:33;;;;;;;3.30;1.70;;;;;;;13.08;100.00;97986.31;1708258;75;915804;-70
2023/05/31 00:36:04;;;;;;;2.15;1.55;;;;;;;13.01;100.00;97987.47;1699015;75;858414;-73
2023/05/31 00:38:34;;;;;;;1.40;1.30;;;;;;;13.01;100.00;97981.97;1708276;75;879254;-70
2023/05/31 00:41:04;;;;;;;1.50;1.25;;;;;;;12.92;100.00;97982.16;1701474;75;747047;-74
2023/05/31 00:43:37;;;;;;;1.60;1.30;;;;;;;12.86;100.00;97982.09;1710433;75;674944;-71
2023/05/31 00:46:08;;;;;;;1.65;1.30;;;;;;;12.85;100.00;97979.84;1688214;75;1825813;-69
2023/05/31 00:48:38;;;;;;;2.00;1.40;;;;;;;12.74;100.00;97983.94;1695981;75;1870893;-70
2023/05/31 00:51:09;;;;;;;1.90;1.40;;;;;;;12.68;100.00;97979.66;1676107;75;2884978;-69
2023/05/31 00:53:39;;;;;;;1.60;1.30;;;;;;;12.69;100.00;97981.91;1710231;75;674912;-70
2023/05/31 00:56:10;;;;;;;1.85;1.40;;;;;;;12.63;100.00;97980.31;1701839;75;725294;-69
2023/05/31 00:58:47;;;;;;;1.45;1.20;;;;;;;12.61;100.00;97988.31;1684857;75;2846275;-70
2023/05/31 01:01:18;;;;;;;1.95;1.50;;;;;;;12.60;100.00;97984.03;1701533;75;745520;-70
2023/05/31 01:03:48;;;;;;;1.40;1.30;;;;;;;12.51;100.00;97984.94;1710193;75;680115;-73
2023/05/31 01:06:19;;;;;;;1.60;1.40;;;;;;;12.41;100.00;97981.56;1699788;75;795384;-70
2023/05/31 01:08:49;;;;;;;1.40;1.30;;;;;;;12.30;100.00;97984.16;1677168;75;3515301;-72
2023/05/31 01:11:29;;;;;;;1.90;1.60;;;;;;;12.21;100.00;97981.53;1700893;75;748478;-73
2023/05/31 01:14:15;;;;;;;2.60;1.80;;;;;;;12.26;100.00;97981.59;1702524;75;674582;-72
2023/05/31 01:16:55;;;;;;;1.80;1.35;;;;;;;12.24;100.00;97973.13;1710113;75;675942;-70
2023/05/31 01:19:47;;;;;;;3.90;1.60;;;;;;;12.18;100.00;97972.28;1701368;75;740759;-71
2023/05/31 01:22:44;;;;;;;2.20;1.50;;;;;;;12.14;100.00;97971.72;1702031;75;688468;-71
2023/05/31 01:25:38;;;;;;;1.70;1.30;;;;;;;12.13;100.00;97981.94;1702489;75;673645;-74
2023/05/31 01:28:12;;;;;;;2.35;1.95;;;;;;;11.97;100.00;97985.22;1699196;75;849642;-72
2023/05/31 01:30:43;;;;;;;2.20;1.90;;;;;;;11.93;100.00;97979.94;1710353;75;668115;-73
2023/05/31 01:33:15;;;;;;;;;;;;;;;11.93;100.00;97982.69;1688874;75;1887787;-75
2023/05/31 01:35:45;;;;;;;1.55;1.40;;;;;;;11.94;100.00;97984.16;1638341;75;6829915;-73
2023/05/31 01:38:15;;;;;;;1.40;1.10;;;;;;;11.80;100.00;97984.94;1689181;67;1830505;-69
2023/05/31 01:40:45;;;;;;;2.10;1.60;;;;;;;11.74;100.00;97975.88;1711150;75;673737;-70
2023/05/31 01:43:19;;;;;;;1.70;1.40;;;;;;;11.78;100.00;97981.16;1700975;67;843461;-70
2023/05/31 01:45:51;;;;;;;1.60;1.40;;;;;;;11.72;100.00;97978.34;1710086;75;685695;-74
2023/05/31 01:48:21;;;;;;;1.40;1.30;;;;;;;11.73;100.00;97982.56;1702254;75;681232;-71
2023/05/31 01:50:52;;;;;;;2.40;1.30;;;;;;;11.66;100.00;97989.19;1707751;75;949322;-74
2023/05/31 01:53:23;;;;;;;1.90;1.70;;;;;;;11.62;100.00;97985.16;1701966;75;675895;-68
2023/05/31 01:55:54;;;;;;;1.55;1.40;;;;;;;11.60;100.00;97985.63;1710039;75;685000;-72
2023/05/31 01:58:28;;;;;;;1.50;1.40;;;;;;;11.56;100.00;97987.78;1702341;75;671558;-73
2023/05/31 02:00:58;;;;;;;2.75;1.50;;;;;;;11.54;100.00;97986.75;1710960;75;697098;-75
2023/05/31 02:03:30;;;;;;;1.80;1.40;;;;;;;11.49;100.00;97988.94;1701714;75;739251;-72
2023/05/31 02:06:03;;;;;;;2.00;1.50;;;;;;;11.37;100.00;97991.97;1710968;75;673953;-70
2023/05/31 02:08:33;;;;;;;4.70;1.90;;;;;;;11.38;100.00;97994.25;1699605;75;901189;-69
2023/05/31 02:11:03;;;;;;;1.55;1.45;;;;;;;11.31;100.00;97989.13;1709288;75;694578;-69
2023/05/31 02:13:37;;;;;;;1.55;1.20;;;;;;;11.27;100.00;97992.06;1702074;75;742412;-68
2023/05/31 02:16:10;;;;;;;1.75;1.50;;;;;;;11.30;100.00;97998.56;1710152;75;681038;-69
2023/05/31 02:18:40;;;;;;;2.75;1.50;;;;;;;11.26;100.00;97992.53;1687963;75;1823308;-73
2023/05/31 02:21:11;;;;;;;2.00;1.30;;;;;;;11.27;100.00;97994.03;1711505;75;674124;-71
2023/05/31 02:23:42;;;;;;;2.05;1.25;;;;;;;11.20;100.00;97991.69;1699958;75;836128;-70
2023/05/31 02:26:12;;;;;;;1.50;1.35;;;;;;;11.20;100.00;97997.16;1711186;75;675656;-72
2023/05/31 02:28:45;;;;;;;2.35;1.50;;;;;;;11.18;100.00;97999.59;1701766;75;737881;-72
2023/05/31 02:31:15;;;;;;;2.50;1.50;;;;;;;11.13;100.00;98000.28;1710633;75;718188;-68
2023/05/31 02:33:45;;;;;;;1.20;1.10;;;;;;;11.07;100.00;98000.19;1698446;75;966531;-70
2023/05/31 02:36:15;;;;;;;1.80;1.30;;;;;;;11.09;100.00;98003.22;1710767;75;688652;-69
2023/05/31 02:38:47;;;;;;;1.40;1.20;;;;;;;11.02;100.00;97998.09;1702023;75;742790;-69
2023/05/31 02:41:17;;;;;;;2.50;1.60;;;;;;;10.98;100.00;97995.53;1711357;75;687685;-73
2023/05/31 02:43:50;;;;;;;1.60;1.50;;;;;;;11.00;100.00;97997.81;1702937;75;743465;-70
2023/05/31 02:46:20;;;;;;;1.90;1.70;;;;;;;10.93;100.00;98009.13;1711833;75;672186;-70
2023/05/31 02:48:50;;;;;;;1.95;1.35;;;;;;;10.92;100.00;98005.63;1678951;75;2719644;-70
2023/05/31 02:51:20;;;;;;;1.95;1.35;;;;;;;10.92;100.00;98011.13;1711740;75;674098;-68
2023/05/31 02:53:51;;;;;;;1.60;1.40;;;;;;;10.89;100.00;98009.28;1702126;75;737166;-69
2023/05/31 02:56:24;;;;;;;2.00;1.40;;;;;;;10.90;100.00;98010.81;1710990;75;671224;-69
2023/05/31 02:58:57;;;;;;;1.80;1.20;;;;;;;10.86;100.00;98015.72;1702346;75;740015;-72
2023/05/31 03:01:27;;;;;;;1.50;1.20;;;;;;;10.83;100.00;98011.94;1710608;75;688017;-69
2023/05/31 03:03:57;;;;;;;1.20;1.10;;;;;;;10.86;100.00;98018.44;1700297;75;811332;-69
2023/05/31 03:06:28;;;;;;;1.60;1.30;;;;;;;10.80;100.00;98012.88;1710400;75;674399;-74
2023/05/31 03:08:58;;;;;;;2.45;1.10;;;;;;;10.83;100.00;98017.41;1700921;75;785093;-72
2023/05/31 03:11:28;;;;;;;1.20;0.90;;;;;;;10.77;100.00;98019.28;1710750;75;678178;-71
2023/05/31 03:14:01;;;;;;;1.80;1.35;;;;;;;10.78;100.00;98015.31;1701600;75;737239;-75
2023/05/31 03:16:34;;;;;;;2.55;1.20;;;;;;;10.75;100.00;98018.22;1710418;75;686274;-69
2023/05/31 03:19:04;;;;;;;1.20;1.10;;;;;;;10.73;100.00;98028.91;1700460;75;774354;-70
2023/05/31 03:21:35;;;;;;;1.20;1.10;;;;;;;10.71;100.00;98021.16;1708769;75;808706;-73
2023/05/31 03:24:06;;;;;;;1.85;1.25;;;;;;;10.71;100.00;98025.88;1676771;75;2780894;-74
2023/05/31 03:26:36;;;;;;;2.20;1.70;;;;;;;10.64;100.00;98025.00;1710437;75;669055;-69
2023/05/31 03:29:09;;;;;;;1.50;1.30;;;;;;;10.75;100.00;98016.25;1701590;75;739641;-71
2023/05/31 03:31:39;;;;;;;1.60;1.30;;;;;;;10.77;100.00;98030.22;1709746;75;671763;-71
2023/05/31 03:34:09;;;;;;;1.40;1.10;;;;;;;10.76;100.00;98023.25;1701682;75;741580;-69
2023/05/31 03:36:39;;;;;;;1.60;1.50;;;;;;;10.80;100.00;98023.06;1710663;75;684194;-72
2023/05/31 03:39:10;;;;;;;1.70;1.30;;;;;;;10.79;100.00;98025.03;1698153;75;975950;-71
2023/05/31 03:41:41;;;;;;;1.30;1.10;;;;;;;10.88;100.00;98018.75;1710418;75;678871;-70
2023/05/31 03:44:13;;;;;;;1.85;1.45;;;;;;;10.92;100.00;98024.81;1701638;75;720055;-70
2023/05/31 03:46:44;;;;;;;1.50;1.10;;;;;;;11.02;100.00;98018.03;1709849;75;680578;-71
2023/05/31 03:49:14;;;;;;;2.00;1.20;;;;;;;11.10;100.00;98023.88;1688484;75;1710326;-71
2023/05/31 03:51:44;;;;;;;2.05;1.50;;;;;;;11.12;100.00;98017.94;1710526;75;670323;-72
2023/05/31 03:54:14;;;;;;;1.55;1.25;;;;;;;11.28;100.00;98021.00;1701216;75;745839;-73
2023/05/31 03:56:44;;;;;;;1.95;1.45;;;;;;;11.35;100.00;98014.34;1711029;75;669127;-73
2023/05/31 03:59:17;;;;;;;2.00;1.60;;;;;;;11.43;100.00;98023.72;1686895;75;1866898;-75
2023/05/31 04:01:47;;;;;;;1.50;1.20;;;;;;;11.58;100.00;98022.97;1709773;75;703441;-72
2023/05/31 04:04:18;;;;;;;1.50;1.30;;;;;;;11.63;100.00;98023.06;1701648;75;752317;-72
2023/05/31 04:06:48;;;;;;;2.10;1.55;;;;;;;11.71;100.00;98017.94;1697430;75;1764835;-70
2023/05/31 04:09:18;;;;;;;3.20;2.75;;;;;;;11.85;100.00;98021.91;1687859;75;1867788;-71
2023/05/31 04:11:49;;;;;;;4.75;4.25;;;;;;;11.99;100.00;98023.91;1710678;75;674130;-69
2023/05/31 04:14:21;;;;;;;4.40;3.80;;;;;;;12.02;100.00;98036.66;1700812;75;795589;-73
2023/05/31 04:16:52;;;;;;;5.40;3.40;;;;;;;12.18;100.00;98029.91;1710120;75;679208;-72
2023/05/31 04:19:22;;;;;;;5.00;4.20;;;;;;;12.23;100.00;98031.97;1663303;75;3909864;-71
2023/05/31 04:21:52;;;;;;;6.90;5.80;;;;;;;12.33;100.00;98027.13;1639964;75;6633790;-74
2023/05/31 04:24:22;;;;;;;6.25;5.05;;;;;;;12.44;100.00;98032.03;1701384;75;758058;-70
2023/05/31 04:26:53;;;;;;;4.70;4.20;;;;;;;12.52;100.00;98025.63;1710504;75;676287;-72
2023/05/31 04:29:26;;;;;;;7.15;5.85;;;;;;;12.58;100.00;98031.97;1699177;75;838208;-70
2023/05/31 04:31:56;;;;;;;5.80;4.90;;;;;;;12.70;100.00;98032.88;1709393;75;671944;-71
2023/05/31 04:34:26;;;;;;;7.50;5.00;;;;;;;12.80;100.00;98033.47;1697461;75;837161;-73
2023/05/31 04:36:57;;;;;;;6.85;5.45;;;;;;;12.78;100.00;98039.44;1686061;75;2702895;-72
2023/05/31 04:39:28;;;;;;;6.45;4.65;;;;;;;12.86;100.00;98030.78;1701499;75;746216;-71
2023/05/31 04:41:59;;;;;;;6.90;3.60;;;;;;;12.87;100.00;98040.53;1710420;75;675530;-72
2023/05/31 04:44:32;;;;;;;4.80;3.15;;;;;;;12.98;100.00;98040.66;1699570;75;876346;-72
2023/05/31 04:47:02;;;;;;;6.50;2.70;;;;;;;13.00;100.00;98044.44;1707602;75;912019;-72
2023/05/31 04:49:32;;;;;;;4.05;2.85;;;;;;;12.97;100.00;98041.91;1701037;75;743798;-72
2023/05/31 04:52:04;;;;;;;4.75;2.70;;;;;;;13.11;100.00;98051.31;1707226;75;961626;-72
2023/05/31 04:54:34;;;;;;;3.75;2.10;;;;;;;13.25;100.00;98044.94;1689122;75;1710772;-74
2023/05/31 04:57:04;;;;;;;3.50;2.30;;;;;;;13.27;100.00;98044.47;1709957;75;677915;-74
2023/05/31 04:59:37;;;;;;;3.10;2.25;;;;;;;13.32;100.00;98050.06;1701097;75;746275;-74
2023/05/31 05:02:09;;;;;;;5.10;2.40;;;;;;;13.42;100.00;98047.91;1672010;75;3900336;-68
2023/05/31 05:04:39;;;;;;;3.75;2.25;;;;;;;13.52;100.00;98052.00;1701890;75;749854;-71
2023/05/31 05:07:10;;;;;;;3.90;2.20;;;;;;;13.66;100.00;98053.13;1710514;75;673770;-75
2023/05/31 05:09:40;;;;;;;2.70;1.95;;;;;;;13.75;100.00;98057.72;1700581;75;774044;-70
2023/05/31 05:12:12;;;;;;;3.50;1.60;;;;;;;13.81;100.00;98058.53;1697428;75;1774006;-71
2023/05/31 05:14:45;;;;;;;3.30;1.80;;;;;;;13.91;98.32;98050.84;1700992;75;742094;-68
2023/05/31 05:17:16;;;;;;;2.50;1.75;;;;;;;13.99;95.85;98060.16;1710318;75;682760;-70
2023/05/31 05:19:46;;;;;;;2.35;1.60;;;;;;;14.10;95.67;98056.75;1701373;75;733347;-70
2023/05/31 05:22:17;;;;;;;2.10;1.50;;;;;;;14.22;94.40;98061.81;1710067;75;683503;-71
2023/05/31 05:24:47;;;;;;;6.40;3.70;;;;;;;14.13;91.17;98053.75;1701192;75;745601;-70
2023/05/31 05:27:18;;;;;;;7.45;3.90;;;;;;;14.22;90.95;98053.56;1709415;75;679968;-73
2023/05/31 05:29:51;;;;;;;6.60;3.90;;;;;;;14.22;85.03;98050.06;1698366;75;910357;-75
2023/05/31 05:32:21;;;;;;;5.50;3.90;;;;;;;14.41;83.17;98053.94;1706690;75;945892;-72
2023/05/31 05:34:51;;;;;;;8.20;3.60;;;;;;;14.46;82.54;98049.72;1699827;75;772517;-68
2023/05/31 05:37:21;;;;;;;4.95;3.20;;;;;;;14.55;81.83;98048.75;1710865;75;682421;-71
2023/05/31 05:39:51;;;;;;;4.90;3.65;;;;;;;14.75;80.55;98053.38;1701813;75;745967;-71
2023/05/31 05:42:22;;;;;;;6.45;3.75;;;;;;;14.83;78.78;98057.16;1710499;75;684274;-72
2023/05/31 05:44:55;;;;;;;10.15;4.20;;;;;;;14.75;77.57;98061.66;1702637;75;750828;-69
2023/05/31 05:47:25;;;;;;;5.90;3.90;;;;;;;14.89;78.69;98066.22;1711806;75;678236;-69
2023/05/31 05:49:55;;;;;;;7.15;2.85;;;;;;;15.18;76.72;98065.06;1701139;75;749036;-69
2023/05/31 05:52:27;;;;;;;3.80;2.80;;;;;;;15.21;77.48;98066.09;1710256;75;672274;-73
2023/05/31 05:54:59;;;;;;;6.05;3.45;;;;;;;15.40;77.57;98080.94;1701523;75;749755;-71
2023/05/31 05:57:29;;;;;;;5.90;3.60;;;;;;;15.32;74.15;98072.38;1709598;75;688453;-73
2023/05/31 06:00:05;;;;;;;7.45;4.10;;;;;;;15.28;74.00;98071.13;1697009;75;747263;-71
2023/05/31 06:02:35;;;;;;;6.40;4.20;;;;;;;15.27;75.14;98072.34;1702629;75;684829;-69
2023/05/31 06:05:06;;;;;;;6.40;3.80;;;;;;;15.39;74.42;98079.41;1710979;75;687960;-73
2023/05/31 06:07:38;;;;;;;5.70;3.30;;;;;;;15.54;72.38;98070.94;1699776;75;808089;-70
2023/05/31 06:10:11;;;;;;;7.60;4.30;;;;;;;15.65;71.72;98075.69;1709849;75;691385;-73
2023/05/31 06:12:41;;;;;;;7.50;4.00;;;;;;;15.62;72.49;98082.97;1701828;75;682086;-67
2023/05/31 06:15:15;;;;;;;5.30;3.20;;;;;;;15.99;74.43;98076.50;1709888;75;679760;-70
2023/05/31 06:17:45;;;;;;;3.60;2.40;;;;;;;16.23;75.01;98078.75;1697436;75;948212;-71
2023/05/31 06:20:16;;;;;;;3.50;2.00;;;;;;;16.32;74.95;98084.00;1709797;75;676026;-68
2023/05/31 06:22:47;;;;;;;3.35;1.90;;;;;;;16.52;73.25;98082.97;1688149;75;1846210;-72
2023/05/31 06:25:19;;;;;;;2.20;1.80;;;;;;;16.52;70.19;98076.69;1709832;75;681683;-71
2023/05/31 06:27:49;;;;;;;3.15;1.85;;;;;;;16.76;69.17;98082.41;1701509;75;684072;-68
2023/05/31 06:30:22;;;;;;;2.20;1.70;;;;;;;16.94;69.12;98088.66;1709251;75;674883;-69
2023/05/31 06:32:53;;;;;;;4.90;2.90;;;;;;;16.84;68.70;98088.19;1700562;75;805581;-72
2023/05/31 06:35:23;;;;;;;5.80;3.20;;;;;;;16.80;66.47;98085.69;1710037;75;703211;-69
2023/05/31 06:37:54;;;;;;;5.95;3.40;;;;;;;17.03;66.76;98080.09;1683895;75;2004164;-70
2023/05/31 06:40:25;;;;;;;6.35;3.45;;;;;;;17.37;66.63;98086.19;1706593;75;846518;-69
2023/05/31 06:42:55;;;;;;;4.60;2.55;;;;;;;17.62;64.43;98086.31;1687825;75;1904740;-70
2023/05/31 06:45:32;;;;;;;4.95;3.10;;;;;;;17.03;65.50;98091.91;1705251;75;1039223;-69
2023/05/31 06:48:05;;;;;;;4.60;3.00;;;;;;;17.15;64.74;98083.53;1691571;75;1131378;-76
2023/05/31 06:50:35;;;;;;;3.90;2.20;;;;;;;17.37;64.12;98096.53;1708699;75;819894;-69
2023/05/31 06:53:09;;;;;;;5.50;2.65;;;;;;;17.42;62.68;98087.44;1700941;75;756929;-71
2023/05/31 06:55:41;;;;;;;7.00;2.90;;;;;;;17.65;61.71;98088.03;1710308;75;676617;-70
2023/05/31 06:58:11;;;;;;;5.25;2.55;;;;;;;17.67;61.72;98089.03;1701796;75;742341;-68
2023/05/31 07:00:44;;;;;;;4.95;2.70;;;;;;;17.99;61.55;98087.81;1710992;75;675542;-71
2023/05/31 07:03:14;;;;;;;6.45;2.70;;;;;;;18.01;62.25;98086.03;1702616;75;739008;-71
2023/05/31 07:05:45;;;;;;;8.20;3.60;;;;;;;17.97;61.01;98091.13;1710575;75;684889;-68
2023/05/31 07:08:15;;;;;;;7.55;4.05;;;;;;;18.00;59.80;98089.34;1701484;75;747102;-71
2023/05/31 07:10:46;;;;;;;4.70;2.40;;;;;;;18.28;60.24;98084.31;1710343;75;682829;-69
2023/05/31 07:13:17;;;;;;;6.85;3.00;;;;;;;18.22;60.82;98086.38;1700870;75;748740;-69
2023/05/31 07:15:51;;;;;;;6.90;3.45;;;;;;;18.28;60.43;98086.34;1710094;75;693403;-72
2023/05/31 07:18:24;;;;;;;7.15;3.35;;;;;;;18.45;60.73;98081.38;1700075;75;753928;-69
2023/05/31 07:20:56;;;;;;;9.45;3.60;;;;;;;18.55;59.57;98086.59;1709355;75;676584;-69
2023/05/31 07:23:27;;;;;;;4.15;3.10;;;;;;;18.91;60.16;98087.22;1699410;75;803806;-72
2023/05/31 07:25:57;;;;;;;5.80;3.00;;;;;;;18.94;59.07;98091.72;1709157;75;669576;-69
2023/05/31 07:28:27;;;;;;;4.60;3.10;;;;;;;19.28;58.38;98080.94;1697733;75;904437;-70
2023/05/31 07:31:00;;;;;;;4.10;2.55;;;;;;;19.65;58.48;98087.75;1706482;75;942465;-70
2023/05/31 07:33:30;;;;;;;7.80;3.40;;;;;;;19.29;59.00;98093.56;1700495;75;754043;-70
2023/05/31 07:36:03;;;;;;;3.80;2.85;;;;;;;19.95;59.15;98089.59;1709782;75;671270;-70
2023/05/31 07:38:33;;;;;;;4.65;2.80;;;;;;;20.09;58.60;98088.38;1700563;75;753117;-68
2023/05/31 07:41:04;;;;;;;3.00;1.90;;;;;;;20.32;60.38;98087.97;1707513;75;846641;-71
2023/05/31 07:43:34;;;;;;;6.15;3.00;;;;;;;20.39;60.08;98088.09;1701050;75;738737;-68
2023/05/31 07:46:07;;;;;;;7.50;2.50;;;;;;;20.70;58.73;98076.69;1709326;75;681915;-71
2023/05/31 07:48:38;;;;;;;6.65;3.05;;;;;;;20.48;59.25;98086.94;1700684;75;751105;-73
2023/05/31 07:51:08;;;;;;;3.65;2.50;;;;;;;20.75;58.13;98082.16;1709491;75;672373;-69
2023/05/31 07:53:39;;;;;;;3.90;3.00;;;;;;;20.76;58.06;98085.69;1701190;75;750343;-70
2023/05/31 07:56:10;;;;;;;4.10;2.50;;;;;;;21.02;56.94;98077.34;1710290;75;679660;-70
2023/05/31 07:58:41;;;;;;;3.50;2.60;;;;;;;21.24;56.84;98089.28;1700529;75;758783;-73
2023/05/31 08:01:16;;;;;;;4.70;3.20;;;;;;;21.39;58.17;98083.16;1709912;75;682640;-69
2023/05/31 08:03:46;;;;;;;5.10;3.10;;;;;;;21.41;57.11;98088.97;1700879;75;758452;-70
2023/05/31 08:06:20;;;;;;;4.90;2.95;;;;;;;21.68;56.65;98086.84;1710579;75;679412;-69
2023/05/31 08:08:50;;;;;;;5.65;3.00;;;;;;;21.73;56.59;98088.00;1700326;75;756460;-71
2023/05/31 08:11:21;;;;;;;7.10;3.65;;;;;;;21.64;55.59;98078.78;1695652;75;1856609;-71
2023/05/31 08:13:51;;;;;;;4.90;2.20;;;;;;;22.11;55.30;98083.50;1701673;75;747993;-68
2023/05/31 08:16:24;;;;;;;3.60;2.35;;;;;;;22.29;54.56;98086.66;1708571;75;861468;-72
2023/05/31 08:18:54;;;;;;;4.10;3.00;;;;;;;22.06;54.04;98087.19;1701469;75;745801;-68
2023/05/31 08:21:25;;;;;;;6.80;3.70;;;;;;;21.83;54.71;98092.53;1708860;75;674072;-69
2023/05/31 08:23:56;;;;;;;6.00;3.70;;;;;;;21.76;54.20;98087.63;1701645;75;746349;-70
2023/05/31 08:26:26;;;;;;;5.10;3.70;;;;;;;21.58;54.71;98091.38;1709969;75;670891;-71
2023/05/31 08:28:56;;;;;;;7.00;5.20;;;;;;;21.52;54.89;98099.84;1701434;75;726083;-69
2023/05/31 08:31:29;;;;;;;5.85;4.15;;;;;;;21.74;56.05;98092.25;1709375;75;688074;-73
2023/05/31 08:34:01;;;;;;;6.30;3.35;;;;;;;21.56;55.49;98091.91;1701505;75;743985;-72
2023/05/31 08:36:31;;;;;;;4.80;3.40;;;;;;;21.52;55.98;98094.25;1709909;75;689781;-70
2023/05/31 08:39:03;;;;;;;5.85;3.50;;;;;;;21.17;55.46;98095.53;1701055;75;759273;-70
2023/05/31 08:41:42;;;;;;;4.70;3.30;;;;;;;21.17;56.93;98103.88;1710089;75;672647;-69
2023/05/31 08:44:13;;;;;;;5.90;3.40;;;;;;;21.09;56.86;98100.22;1699700;75;838734;-68
2023/05/31 08:46:48;;;;;;;5.50;3.40;;;;;;;20.91;56.98;98107.41;1710406;75;678809;-69
2023/05/31 08:49:18;;;;;;;4.65;3.30;;;;;;;20.80;56.58;98097.25;1701306;75;745452;-68
2023/05/31 08:51:51;;;;;;;4.10;2.60;;;;;;;21.17;57.40;98095.53;1710155;75;672266;-71
2023/05/31 08:54:22;;;;;;;6.95;3.55;;;;;;;21.09;56.93;98109.31;1700534;75;759190;-68
2023/05/31 08:56:53;;;;;;;4.85;3.10;;;;;;;21.09;57.44;98108.56;1709002;75;684081;-69
2023/05/31 08:59:23;;;;;;;4.70;3.35;;;;;;;21.19;57.65;98112.41;1699863;75;755204;-69
2023/05/31 09:01:57;;;;;;;5.70;3.10;;;;;;;21.60;57.12;98109.03;1708375;75;675490;-68
2023/05/31 09:04:28;;;;;;;6.05;3.30;;;;;;;21.58;56.08;98108.09;1699901;75;804303;-73
2023/05/31 09:06:58;;;;;;;3.80;2.60;;;;;;;21.94;55.56;98108.28;1709820;75;675831;-68
2023/05/31 09:09:29;;;;;;;4.00;2.40;;;;;;;22.34;55.00;98105.28;1685166;75;1951444;-70
2023/05/31 09:12:00;;;;;;;5.30;3.00;;;;;;;22.01;54.95;98104.06;1709329;75;669274;-71
2023/05/31 09:14:30;;;;;;;3.40;2.40;;;;;;;22.73;54.50;98100.75;1698798;75;783018;-71
2023/05/31 09:17:03;;;;;;;3.90;2.40;;;;;;;22.82;53.73;98108.59;1709093;75;671593;-74
2023/05/31 09:19:35;;;;;;;3.90;2.60;;;;;;;22.96;53.15;98106.44;1700050;75;740329;-70
2023/05/31 09:22:06;;;;;;;4.15;2.85;;;;;;;22.96;53.31;98107.19;1708185;75;678218;-67
2023/05/31 09:24:38;;;;;;;4.75;2.85;;;;;;;22.84;52.99;98105.25;1700343;75;741256;-69
2023/05/31 09:27:08;;;;;;;4.00;2.30;;;;;;;23.31;51.82;98101.44;1709593;75;678397;-70
2023/05/31 09:29:40;;;;;;;3.35;2.30;;;;;;;23.70;51.75;98105.81;1700089;75;765644;-70
2023/05/31 09:32:16;;;;;;;4.00;2.60;;;;;;;23.79;51.77;98105.31;1708468;75;680740;-69
2023/05/31 09:34:46;;;;;;;3.95;2.45;;;;;;;24.05;51.15;98099.94;1700646;75;743830;-70
2023/05/31 09:37:26;;;;;;;6.05;3.75;;;;;;;22.69;52.02;98101.06;1708914;75;681027;-68
2023/05/31 09:39:59;;;;;;;4.55;3.30;;;;;;;23.95;50.80;98099.75;1700285;75;732330;-68
2023/05/31 09:42:30;;;;;;;4.80;3.10;;;;;;;24.30;50.14;98100.88;1707627;75;881293;-71
2023/05/31 09:45:02;;;;;;;4.15;2.90;;;;;;;24.49;50.02;98100.53;1700409;75;745791;-72
2023/05/31 09:47:35;;;;;;;3.30;2.50;;;;;;;24.28;49.20;98089.50;1708607;75;675145;-74
2023/05/31 09:50:06;;;;;;;4.05;2.65;;;;;;;24.47;49.82;98100.34;1700308;75;768588;-71
2023/05/31 09:52:39;;;;;;;2.80;2.00;;;;;;;24.78;49.43;98098.25;1709842;75;675437;-67
2023/05/31 09:55:13;;;;;;;4.30;2.75;;;;;;;23.43;50.00;98093.44;1700949;75;744057;-70
2023/05/31 09:57:45;;;;;;;5.20;3.70;;;;;;;23.26;51.08;98082.75;1709080;75;680740;-67
2023/05/31 10:00:20;;;;;;;4.55;2.85;;;;;;;24.13;49.04;98087.47;1699800;75;737112;-69
2023/05/31 10:02:56;;;;;;;3.65;3.00;;;;;;;24.24;48.89;98095.50;1705937;75;676371;-70
2023/05/31 10:05:27;;;;;;;6.40;3.00;;;;;;;24.23;48.09;98098.84;1707019;75;863417;-66
2023/05/31 10:07:58;;;;;;;4.80;3.10;;;;;;;24.24;48.84;98100.31;1700509;75;677999;-71
2023/05/31 10:10:28;;;;;;;4.40;2.90;;;;;;;24.00;48.54;98093.22;1709335;75;691963;-70
2023/05/31 10:13:02;;;;;;;3.70;2.20;;;;;;;24.31;47.71;98090.44;1701822;75;682182;-68
2023/05/31 10:15:37;;;;;;;4.15;2.70;;;;;;;24.38;47.93;98095.28;1710142;75;677285;-71
2023/05/31 10:18:14;;;;;;;5.55;3.25;;;;;;;23.80;47.45;98087.22;1699692;75;741977;-68
2023/05/31 10:20:55;;;;;;;5.40;2.40;;;;;;;24.08;48.04;98093.25;1705816;75;979564;-69
2023/05/31 10:23:27;;;;;;;3.90;2.40;;;;;;;24.10;48.60;98090.63;1701257;75;757654;-74
2023/05/31 10:26:08;;;;;;;4.80;3.10;;;;;;;23.93;48.79;98091.94;1709735;75;674930;-71
2023/05/31 10:28:47;;;;;;;3.50;2.70;;;;;;;24.15;47.55;98090.44;1700114;75;736957;-71
2023/05/31 10:31:18;;;;;;;4.50;3.10;;;;;;;23.43;49.26;98091.41;1701727;75;676835;-71
2023/05/31 10:33:57;;;;;;;6.60;3.10;;;;;;;23.44;48.83;98092.16;1710254;75;672461;-71
2023/05/31 10:36:28;;;;;;;4.85;3.00;;;;;;;23.01;49.17;98085.28;1701662;75;678234;-72
2023/05/31 10:39:04;;;;;;;4.80;2.70;;;;;;;23.21;49.04;98087.25;1708512;75;682576;-69
2023/05/31 10:41:44;;;;;;;6.05;3.55;;;;;;;23.01;51.36;98086.00;1701641;75;712332;-70
2023/05/31 10:44:22;;;;;;;5.00;3.00;;;;;;;22.95;50.31;98093.78;1703165;75;675842;-69
2023/05/31 10:46:57;;;;;;;;;;;;;;;22.93;53.04;98085.94;1710453;75;673168;-67
2023/05/31 10:49:36;;;;;;;3.60;2.20;;;;;;;23.39;51.42;98086.16;1701385;75;675621;-73
2023/05/31 10:52:14;;;;;;;4.75;3.00;;;;;;;23.40;50.68;98092.50;1710018;75;675015;-69
2023/05/31 10:54:44;;;;;;;;;;;;;;;23.05;52.16;98085.69;1700942;75;748673;-71
2023/05/31 10:57:18;;;;;;;7.00;3.70;;;;;;;22.85;52.21;98087.97;1708550;75;671235;-73
2023/05/31 10:59:49;;;;;;;8.30;3.45;;;;;;;22.85;52.41;98084.41;1700769;75;741104;-70
2023/05/31 11:02:21;;;;;;;8.30;4.90;;;;;;;22.81;53.29;98081.97;1709457;75;681466;-69
2023/05/31 11:04:54;;;;;;;3.70;2.65;;;;;;;23.38;52.15;98083.94;1700997;75;730401;-72
2023/05/31 11:07:28;;;;;;;3.40;2.50;;;;;;;23.81;51.26;98085.19;1709046;75;681599;-69
2023/05/31 11:09:59;;;;;;;4.30;2.35;;;;;;;24.09;50.95;98094.72;1700790;75;752520;-69
2023/05/31 11:12:40;;;;;;;4.40;2.50;;;;;;;24.29;48.84;98077.00;1709765;75;672367;-69
2023/05/31 11:15:17;;;;;;;4.95;2.95;;;;;;;23.50;50.87;98085.09;1701267;75;740288;-69
2023/05/31 11:17:56;;;;;;;3.90;2.80;;;;;;;24.12;49.01;98071.97;1700759;75;680381;-67
2023/05/31 11:20:30;;;;;;;2.70;2.20;;;;;;;24.33;47.99;98074.56;1710340;75;675205;-70
2023/05/31 11:23:34;;;;;;;5.90;3.70;;;;;;;22.98;51.16;98075.94;1702187;75;680254;-69
2023/05/31 11:26:20;;;;;;;7.50;3.20;;;;;;;23.53;50.02;98067.22;1702552;75;688687;-71
2023/05/31 11:29:03;;;;;;;3.90;2.90;;;;;;;24.41;48.61;98068.97;1700838;75;677848;-71
2023/05/31 11:32:04;;;;;;;3.50;2.90;;;;;;;24.39;49.24;98068.78;1709750;75;675598;-70
2023/05/31 11:34:37;;;;;;;6.55;3.55;;;;;;;23.22;50.34;98065.63;1700608;75;740227;-68
2023/05/31 11:37:10;;;;;;;6.20;3.80;;;;;;;23.34;50.55;98064.00;1709219;75;691286;-72
2023/05/31 11:39:41;;;;;;;6.75;3.25;;;;;;;24.27;48.74;98068.44;1700876;75;750799;-71
2023/05/31 11:42:13;;;;;;;7.20;3.70;;;;;;;23.65;50.89;98064.81;1709288;75;672902;-68
2023/05/31 11:44:47;;;;;;;5.75;3.50;;;;;;;23.53;51.07;98060.88;1701435;75;739829;-73